Solovki, Russia
Current Conditions -  °F | °C
As of 1:30 PM on Monday 22 Dec 2014 (Local Time) from ULAA Reporting Station
Light Snow Light Snow  
Wind Chill: 25°   Ceiling: 600
Heat Index: 25°   Visibility: 3mi
Dew Point: 25°   Wind: 2mph
Humidity: 100%   Direction: 180°S
Pressure: 29.12"   Gusts: NA
Location:  65.2°N, 35.3°E
Report Text: ULAA 221030Z 18001MPS 5000 -SN BR OVC006 M04/M04 Q0986 08590539 TEMPO 0500 +SHSN FZFG SCT002 BKN005CB RMK QBB180 QFE738/0985
Loading
Personal Weather Stations






























Interactive Weather Map New forecast layout! Learn more

10-Day Weather Forecast

Advertisements
Track Severe Weather on mobile